Time;durP1;ratioP1;P1;durP2;ratioP2;P2;SDS_P1;SDS_P2;PMS_P1;PMS_P2;Temp;Humidity;BMP_temperature;BMP_pressure;BME280_temperature;BME280_humidity;BME280_pressure;Samples;Min_cycle;Max_cycle;Signal;HPM_P1;HPM_P2
2023/04/08 00:01:52;;;;;;;;;;;5.60;99.90;;;;;;5097516;28;19972;-56
2023/04/08 00:04:18;;;;;;;;;;;5.70;99.90;;;;;;5097617;28;19923;-56
2023/04/08 00:06:43;;;;;;;;;;;5.60;99.90;;;;;;5097520;28;19913;-56
2023/04/08 00:09:09;;;;;;;;;;;5.60;99.90;;;;;;5097402;28;19912;-57
2023/04/08 00:11:36;;;;;;;;;;;5.50;99.90;;;;;;5098124;28;20003;-56
2023/04/08 00:14:03;;;;;;;;;;;5.60;99.90;;;;;;5097371;28;19916;-56
2023/04/08 00:16:29;;;;;;;;;;;5.60;99.90;;;;;;5097566;28;20302;-56
2023/04/08 00:18:55;;;;;;;;;;;5.60;99.90;;;;;;5097572;28;20338;-56
2023/04/08 00:21:22;;;;;;;;;;;5.60;99.90;;;;;;5097135;28;19920;-56
2023/04/08 00:23:48;;;;;;;;;;;5.60;99.90;;;;;;5079058;28;19944;-56
2023/04/08 00:26:13;;;;;;;;;;;5.60;99.90;;;;;;5097466;28;19919;-56
2023/04/08 00:28:41;;;;;;;;;;;5.50;99.90;;;;;;5078985;28;19931;-56
2023/04/08 00:31:08;;;;;;;;;;;5.50;99.90;;;;;;5097367;28;19920;-56
2023/04/08 00:33:33;;;;;;;;;;;5.60;99.90;;;;;;5097175;28;20266;-56
2023/04/08 00:35:59;;;;;;;;;;;5.50;99.90;;;;;;5078886;28;19922;-56
2023/04/08 00:38:25;;;;;;;;;;;5.50;99.90;;;;;;5097195;28;19923;-56
2023/04/08 00:40:51;;;;;;;;;;;5.50;99.90;;;;;;5097130;28;20362;-56
2023/04/08 00:43:19;;;;;;;;;;;5.50;99.90;;;;;;5078733;28;19930;-56
2023/04/08 00:45:46;;;;;;;;;;;5.40;99.90;;;;;;5078760;28;19923;-56
2023/04/08 00:48:12;;;;;;;;;;;5.40;99.90;;;;;;5096979;28;19912;-56
2023/04/08 00:50:38;;;;;;;;;;;5.50;99.90;;;;;;5078651;28;20431;-56
2023/04/08 00:53:03;;;;;;;;;;;5.50;99.90;;;;;;5096754;28;19912;-57
2023/04/08 00:55:29;;;;;;;;;;;5.50;99.90;;;;;;5096774;28;19923;-56
2023/04/08 00:57:55;;;;;;;;;;;5.50;99.90;;;;;;5078712;28;19916;-56
2023/04/08 01:00:21;;;;;;;;;;;5.50;99.90;;;;;;5096614;28;19912;-56
2023/04/08 01:02:52;;;;;;;;;;;5.60;99.90;;;;;;5095750;28;19923;-56
2023/04/08 01:05:27;;;;;;;;;;;5.60;99.90;;;;;;5096386;28;19920;-56
2023/04/08 01:07:53;;;;;;;;;;;5.60;99.90;;;;;;5096617;28;19948;-56
2023/04/08 01:10:21;;;;;;;;;;;5.50;99.90;;;;;;5096329;28;19977;-56
2023/04/08 01:12:54;;;;;;;;;;;5.50;99.90;;;;;;5096354;28;20331;-57
2023/04/08 01:15:20;;;;;;;;;;;5.50;99.90;;;;;;5096469;28;19916;-56
2023/04/08 01:17:49;;;;;;;;;;;5.50;99.90;;;;;;5078075;28;19977;-56
2023/04/08 01:20:15;;;;;;;;;;;5.50;99.90;;;;;;5078001;28;19916;-56
2023/04/08 01:22:44;;;;;;;;;;;5.40;99.90;;;;;;5078132;28;19916;-56
2023/04/08 01:25:17;;;;;;;;;;;5.40;99.90;;;;;;5096258;28;19912;-56
2023/04/08 01:27:43;;;;;;;;;;;5.40;99.90;;;;;;5078142;28;19912;-56
2023/04/08 01:30:09;;;;;;;;;;;5.40;99.90;;;;;;5096414;28;19912;-57
2023/04/08 01:32:35;;;;;;;;;;;5.40;99.90;;;;;;5077654;28;20312;-56
2023/04/08 01:35:01;;;;;;;;;;;5.30;99.90;;;;;;5096059;28;19919;-56
2023/04/08 01:37:29;;;;;;;;;;;5.40;99.90;;;;;;5096022;28;19919;-56
2023/04/08 01:39:55;;;;;;;;;;;5.40;99.90;;;;;;5095875;28;20300;-56
2023/04/08 01:42:22;;;;;;;;;;;5.40;99.90;;;;;;5095847;28;19927;-56
2023/04/08 01:44:49;;;;;;;;;;;5.50;99.90;;;;;;5077611;28;20018;-56
2023/04/08 01:47:16;;;;;;;;;;;5.50;99.90;;;;;;5077543;28;19965;-56
2023/04/08 01:49:43;;;;;;;;;;;5.50;99.90;;;;;;5096096;28;19912;-56
2023/04/08 01:52:10;;;;;;;;;;;5.50;99.90;;;;;;5077737;28;20002;-56
2023/04/08 01:54:37;;;;;;;;;;;5.50;99.90;;;;;;5095462;28;19931;-57
2023/04/08 01:57:07;;;;;;;;;;;5.40;99.90;;;;;;5095639;28;20374;-56
2023/04/08 01:59:35;;;;;;;;;;;5.40;99.90;;;;;;5077453;28;19928;-57
2023/04/08 02:02:02;;;;;;;;;;;5.40;99.90;;;;;;5077185;28;19922;-56
2023/04/08 02:04:28;;;;;;;;;;;5.30;99.90;;;;;;5095541;28;20344;-56
2023/04/08 02:06:56;;;;;;;;;;;5.40;99.90;;;;;;5057268;28;19944;-57
2023/04/08 02:09:23;;;;;;;;;;;5.50;99.90;;;;;;5074827;28;19912;-56
2023/04/08 02:11:49;;;;;;;;;;;5.50;99.90;;;;;;5075111;28;19912;-56
2023/04/08 02:14:15;;;;;;;;;;;5.50;99.90;;;;;;5056895;28;20002;-57
2023/04/08 02:16:56;;;;;;;;;;;5.50;99.90;;;;;;5056990;28;19917;-56
2023/04/08 02:19:28;;;;;;;;;;;5.50;99.90;;;;;;5075212;28;20366;-56
2023/04/08 02:22:01;;;;;;;;;;;5.50;99.90;;;;;;5056865;28;19916;-56
2023/04/08 02:24:28;;;;;;;;;;;5.40;99.90;;;;;;5074879;28;19923;-57
2023/04/08 02:26:55;;;;;;;;;;;5.40;99.90;;;;;;5075094;28;19913;-56
2023/04/08 02:29:23;;;;;;;;;;;5.40;99.90;;;;;;5074868;28;19966;-56
2023/04/08 02:31:53;;;;;;;;;;;5.50;99.90;;;;;;5056935;28;20255;-56
2023/04/08 02:34:20;;;;;;;;;;;5.50;99.90;;;;;;5056836;28;19923;-57
2023/04/08 02:36:46;;;;;;;;;;;5.60;99.90;;;;;;5074736;28;19966;-56
2023/04/08 02:39:13;;;;;;;;;;;5.70;99.90;;;;;;5090429;28;20383;-56
2023/04/08 02:41:38;;;;;;;;;;;5.60;99.90;;;;;;5074896;28;19916;-56
2023/04/08 02:44:04;;;;;;;;;;;5.60;99.90;;;;;;5074658;28;19916;-57
2023/04/08 02:46:30;;;;;;;;;;;5.70;99.90;;;;;;5074766;28;20003;-57
2023/04/08 02:48:56;;;;;;;;;;;5.60;99.90;;;;;;5074891;28;19955;-57
2023/04/08 02:51:22;;;;;;;;;;;5.70;99.90;;;;;;5074654;28;19924;-56
2023/04/08 02:53:47;;;;;;;;;;;5.60;99.90;;;;;;5074505;28;19927;-57
2023/04/08 02:56:13;;;;;;;;;;;5.60;99.90;;;;;;5090310;28;19912;-56
2023/04/08 02:58:39;;;;;;;;;;;5.50;99.90;;;;;;5074557;28;20385;-56
2023/04/08 03:01:06;;;;;;;;;;;5.50;99.90;;;;;;5074620;28;19916;-57
2023/04/08 03:03:31;;;;;;;;;;;5.40;99.90;;;;;;5074665;28;19951;-56
2023/04/08 03:05:57;;;;;;;;;;;5.40;99.90;;;;;;5088068;28;19969;-57
2023/04/08 03:08:23;;;;;;;;;;;5.40;99.90;;;;;;5094664;28;19912;-56
2023/04/08 03:10:49;;;;;;;;;;;5.50;99.90;;;;;;5094761;28;20400;-57
2023/04/08 03:13:15;;;;;;;;;;;5.40;99.90;;;;;;5094648;28;19919;-57
2023/04/08 03:15:41;;;;;;;;;;;5.40;99.90;;;;;;5094713;28;20251;-57
2023/04/08 03:18:07;;;;;;;;;;;5.40;99.90;;;;;;5094677;28;19923;-57
2023/04/08 03:20:33;;;;;;;;;;;5.40;99.90;;;;;;5094629;28;20369;-56
2023/04/08 03:22:59;;;;;;;;;;;5.40;99.90;;;;;;5094550;28;19916;-57
2023/04/08 03:25:25;;;;;;;;;;;5.30;99.90;;;;;;5097110;28;19919;-56
2023/04/08 03:27:51;;;;;;;;;;;5.30;99.90;;;;;;5098536;28;19933;-57
2023/04/08 03:30:16;;;;;;;;;;;5.40;99.90;;;;;;5098431;28;20357;-56
2023/04/08 03:32:42;;;;;;;;;;;5.40;99.90;;;;;;5098590;28;20318;-56
2023/04/08 03:35:08;;;;;;;;;;;5.50;99.90;;;;;;5098360;28;19935;-57
2023/04/08 03:37:34;;;;;;;;;;;5.50;99.90;;;;;;5098330;28;19990;-57
2023/04/08 03:40:00;;;;;;;;;;;5.40;99.90;;;;;;5098256;28;19923;-56
2023/04/08 03:42:26;;;;;;;;;;;5.50;99.90;;;;;;5098186;28;19923;-57
2023/04/08 03:44:51;;;;;;;;;;;5.60;99.90;;;;;;5098230;28;20277;-56
2023/04/08 03:47:17;;;;;;;;;;;5.50;99.90;;;;;;5098016;28;20002;-56
2023/04/08 03:49:43;;;;;;;;;;;5.50;99.90;;;;;;5098137;28;19912;-56
2023/04/08 03:52:09;;;;;;;;;;;5.30;99.90;;;;;;5098040;28;19916;-57
2023/04/08 03:54:34;;;;;;;;;;;5.40;99.90;;;;;;5097840;28;19928;-57
2023/04/08 03:57:00;;;;;;;;;;;5.40;99.90;;;;;;5097930;28;19916;-57
2023/04/08 03:59:26;;;;;;;;;;;5.30;99.90;;;;;;5097896;28;19924;-56
2023/04/08 04:01:52;;;;;;;;;;;5.20;99.90;;;;;;5097909;28;19916;-56
2023/04/08 04:04:18;;;;;;;;;;;5.30;99.90;;;;;;5097902;28;20358;-57
2023/04/08 04:06:44;;;;;;;;;;;5.20;99.90;;;;;;5097634;28;20423;-56
2023/04/08 04:09:10;;;;;;;;;;;5.00;99.90;;;;;;5097530;28;19912;-57
2023/04/08 04:11:36;;;;;;;;;;;5.10;99.90;;;;;;5097764;28;19916;-57
2023/04/08 04:14:02;;;;;;;;;;;5.10;99.90;;;;;;5097647;28;19946;-57
2023/04/08 04:16:28;;;;;;;;;;;5.10;99.90;;;;;;5097557;28;19931;-57
2023/04/08 04:18:54;;;;;;;;;;;5.00;99.90;;;;;;5098023;28;19919;-56
2023/04/08 04:21:20;;;;;;;;;;;4.80;99.90;;;;;;5097430;28;20240;-56
2023/04/08 04:23:45;;;;;;;;;;;4.80;99.90;;;;;;5097406;28;19938;-56
2023/04/08 04:26:11;;;;;;;;;;;4.70;99.90;;;;;;5097567;28;19957;-56
2023/04/08 04:28:37;;;;;;;;;;;4.70;99.90;;;;;;5097458;28;19916;-57
2023/04/08 04:31:04;;;;;;;;;;;4.70;99.90;;;;;;5097188;28;20010;-56
2023/04/08 04:33:30;;;;;;;;;;;4.70;99.90;;;;;;5097305;28;19916;-56
2023/04/08 04:35:56;;;;;;;;;;;4.60;99.90;;;;;;5097160;28;20366;-56
2023/04/08 04:38:21;;;;;;;;;;;4.70;99.90;;;;;;5097239;28;19923;-57
2023/04/08 04:40:47;;;;;;;;;;;4.80;99.90;;;;;;5097026;28;19916;-57
2023/04/08 04:43:13;;;;;;;;;;;4.70;99.90;;;;;;5096986;28;19939;-57
2023/04/08 04:45:39;;;;;;;;;;;4.70;99.90;;;;;;5078964;28;20304;-56
2023/04/08 04:48:05;;;;;;;;;;;4.70;99.90;;;;;;5096934;28;20246;-57
2023/04/08 04:50:31;;;;;;;;;;;4.70;99.90;;;;;;5096912;28;19922;-57
2023/04/08 04:52:56;;;;;;;;;;;4.80;99.90;;;;;;5097156;28;20400;-57
2023/04/08 04:55:22;;;;;;;;;;;4.80;99.90;;;;;;5095705;28;20324;-57
2023/04/08 04:57:48;;;;;;;;;;;4.80;99.90;;;;;;5095679;28;19965;-57
2023/04/08 05:00:15;;;;;;;;;;;4.90;99.90;;;;;;5095778;28;19912;-57
2023/04/08 05:02:40;;;;;;;;;;;5.00;99.90;;;;;;5095757;28;19923;-56
2023/04/08 05:05:06;;;;;;;;;;;5.10;99.90;;;;;;5095545;28;19908;-57
2023/04/08 05:07:35;;;;;;;;;;;5.10;99.90;;;;;;5095566;28;19912;-56
2023/04/08 05:10:02;;;;;;;;;;;5.10;99.90;;;;;;5095554;28;19908;-56
2023/04/08 05:12:28;;;;;;;;;;;5.20;99.90;;;;;;5095387;28;19998;-57
2023/04/08 05:14:54;;;;;;;;;;;5.20;99.90;;;;;;5095569;28;19951;-57
2023/04/08 05:17:19;;;;;;;;;;;5.40;99.90;;;;;;5095655;28;19912;-57
2023/04/08 05:19:45;;;;;;;;;;;5.50;99.90;;;;;;5095361;28;19973;-57
2023/04/08 05:22:11;;;;;;;;;;;5.50;99.90;;;;;;5095329;28;20365;-56
2023/04/08 05:24:36;;;;;;;;;;;5.40;99.90;;;;;;5095514;28;20399;-57
2023/04/08 05:27:02;;;;;;;;;;;5.50;99.90;;;;;;5095643;28;20358;-57
2023/04/08 05:29:28;;;;;;;;;;;5.60;99.90;;;;;;5095433;28;19916;-57
2023/04/08 05:31:55;;;;;;;;;;;5.70;99.90;;;;;;5095193;28;19916;-57
2023/04/08 05:34:21;;;;;;;;;;;5.70;99.90;;;;;;5095134;28;20287;-57
2023/04/08 05:36:50;;;;;;;;;;;5.70;99.90;;;;;;5095140;28;19920;-57
2023/04/08 05:39:17;;;;;;;;;;;5.70;99.90;;;;;;5095210;28;20011;-57
2023/04/08 05:41:43;;;;;;;;;;;5.70;99.90;;;;;;5094877;28;19923;-57
2023/04/08 05:44:09;;;;;;;;;;;5.80;99.90;;;;;;5094991;28;20274;-57
2023/04/08 05:46:36;;;;;;;;;;;5.80;99.90;;;;;;5095053;28;19952;-57
2023/04/08 05:49:02;;;;;;;;;;;5.90;99.90;;;;;;5094412;28;19969;-57
2023/04/08 05:51:28;;;;;;;;;;;6.00;99.90;;;;;;5095000;28;19908;-57
2023/04/08 05:53:53;;;;;;;;;;;6.10;99.90;;;;;;5025262;28;1972295;-57
2023/04/08 05:56:19;;;;;;;;;;;6.00;99.90;;;;;;5095458;28;19912;-57
2023/04/08 05:58:46;;;;;;;;;;;6.10;99.90;;;;;;5095796;28;19926;-57
2023/04/08 06:01:12;;;;;;;;;;;6.20;99.90;;;;;;5095326;28;19951;-57
2023/04/08 06:03:37;;;;;;;;;;;6.20;99.90;;;;;;5095453;28;20331;-57
2023/04/08 06:06:03;;;;;;;;;;;6.30;99.90;;;;;;5095461;28;19916;-57
2023/04/08 06:08:29;;;;;;;;;;;6.40;99.90;;;;;;5095333;28;19919;-57
2023/04/08 06:10:55;;;;;;;;;;;6.40;99.90;;;;;;5095263;28;20427;-57
2023/04/08 06:13:20;;;;;;;;;;;6.50;99.90;;;;;;5095540;28;19954;-57
2023/04/08 06:15:48;;;;;;;;;;;6.50;99.90;;;;;;5095335;28;19916;-57
2023/04/08 06:18:15;;;;;;;;;;;6.70;99.90;;;;;;5095344;28;19912;-57
2023/04/08 06:20:41;;;;;;;;;;;6.80;99.90;;;;;;5095400;28;19952;-57
2023/04/08 06:23:06;;;;;;;;;;;6.90;99.90;;;;;;5094912;28;20086;-57
2023/04/08 06:25:32;;;;;;;;;;;7.00;99.90;;;;;;5095240;28;19920;-57
2023/04/08 06:27:58;;;;;;;;;;;6.90;99.90;;;;;;5095253;28;19912;-57
2023/04/08 06:30:24;;;;;;;;;;;6.90;99.90;;;;;;5095138;28;19912;-57
2023/04/08 06:32:50;;;;;;;;;;;7.00;99.90;;;;;;5095230;28;19912;-57
2023/04/08 06:35:15;;;;;;;;;;;7.00;99.90;;;;;;5095128;28;19916;-57
2023/04/08 06:37:41;;;;;;;;;;;7.10;99.90;;;;;;5095085;28;20254;-57
2023/04/08 06:40:07;;;;;;;;;;;7.00;99.90;;;;;;5095148;28;19916;-57
2023/04/08 06:42:33;;;;;;;;;;;7.00;99.90;;;;;;5094960;28;20010;-57
2023/04/08 06:45:13;;;;;;;;;;;7.00;99.90;;;;;;5076769;28;19920;-57
2023/04/08 06:47:39;;;;;;;;;;;7.00;99.90;;;;;;5095092;28;19977;-57
2023/04/08 06:50:05;;;;;;;;;;;7.10;99.90;;;;;;5095152;28;19954;-57
2023/04/08 06:52:31;;;;;;;;;;;7.20;99.90;;;;;;5094695;28;19965;-57
2023/04/08 06:54:57;;;;;;;;;;;7.20;99.90;;;;;;5094749;28;20353;-57
2023/04/08 06:57:23;;;;;;;;;;;7.30;99.90;;;;;;5094910;28;19912;-57
2023/04/08 06:59:49;;;;;;;;;;;7.40;99.90;;;;;;5096182;28;19912;-57
2023/04/08 07:02:14;;;;;;;;;;;7.40;99.90;;;;;;5098842;28;19919;-57
2023/04/08 07:04:40;;;;;;;;;;;7.40;99.90;;;;;;5098890;28;19912;-57
2023/04/08 07:07:06;;;;;;;;;;;7.50;99.90;;;;;;5098690;28;19923;-57
2023/04/08 07:09:32;;;;;;;;;;;7.60;99.90;;;;;;5098706;28;19920;-57
2023/04/08 07:11:58;;;;;;;;;;;7.60;99.90;;;;;;5098822;28;19922;-57
2023/04/08 07:14:24;;;;;;;;;;;7.70;99.90;;;;;;5098686;28;19908;-57
2023/04/08 07:16:50;;;;;;;;;;;7.80;99.90;;;;;;5098683;28;20281;-57
2023/04/08 07:19:16;;;;;;;;;;;8.00;99.90;;;;;;5098693;28;19967;-57
2023/04/08 07:21:41;;;;;;;;;;;8.10;99.90;;;;;;5098407;28;19917;-57
2023/04/08 07:24:07;;;;;;;;;;;8.00;99.90;;;;;;5098636;28;20492;-57
2023/04/08 07:26:33;;;;;;;;;;;8.10;99.90;;;;;;5098591;28;20011;-57
2023/04/08 07:28:59;;;;;;;;;;;8.20;99.90;;;;;;5098340;28;19916;-57
2023/04/08 07:31:25;;;;;;;;;;;8.30;99.90;;;;;;5098497;28;19962;-57
2023/04/08 07:33:50;;;;;;;;;;;8.40;99.90;;;;;;5098460;28;19916;-57
2023/04/08 07:36:17;;;;;;;;;;;8.50;99.90;;;;;;5098157;28;19919;-57
2023/04/08 07:38:42;;;;;;;;;;;8.70;99.90;;;;;;5098938;28;19908;-57
2023/04/08 07:41:08;;;;;;;;;;;8.90;99.90;;;;;;5098204;28;19919;-57
2023/04/08 07:43:35;;;;;;;;;;;9.00;99.90;;;;;;5098383;28;20041;-57
2023/04/08 07:46:04;;;;;;;;;;;9.00;99.90;;;;;;5098203;28;19916;-57
2023/04/08 07:48:30;;;;;;;;;;;8.90;99.90;;;;;;5098121;28;19946;-57
2023/04/08 07:50:56;;;;;;;;;;;8.90;99.90;;;;;;5098239;28;19916;-57
2023/04/08 07:53:23;;;;;;;;;;;9.10;99.90;;;;;;5098010;28;20471;-57
2023/04/08 07:55:49;;;;;;;;;;;9.30;99.90;;;;;;5097913;28;19912;-57
2023/04/08 07:58:15;;;;;;;;;;;9.40;99.90;;;;;;5097945;28;19991;-57
2023/04/08 08:00:41;;;;;;;;;;;9.30;99.90;;;;;;5098188;28;19912;-57
2023/04/08 08:03:06;;;;;;;;;;;9.30;99.90;;;;;;5097709;28;19916;-57
2023/04/08 08:05:32;;;;;;;;;;;9.50;99.90;;;;;;5097533;28;19951;-57
2023/04/08 08:07:58;;;;;;;;;;;9.60;99.90;;;;;;5097743;28;19912;-57
2023/04/08 08:10:24;;;;;;;;;;;9.80;99.90;;;;;;5096967;28;19912;-57
2023/04/08 08:12:50;;;;;;;;;;;10.00;99.90;;;;;;5097456;28;19912;-57
2023/04/08 08:15:16;;;;;;;;;;;9.90;99.90;;;;;;5097721;28;19923;-57
2023/04/08 08:17:41;;;;;;;;;;;9.80;99.90;;;;;;5097541;28;19918;-57
2023/04/08 08:20:07;;;;;;;;;;;10.00;99.90;;;;;;5097856;28;19922;-57
2023/04/08 08:22:33;;;;;;;;;;;10.00;99.90;;;;;;5097302;28;19916;-57
2023/04/08 08:24:59;;;;;;;;;;;10.00;99.90;;;;;;5097276;28;19908;-57
2023/04/08 08:27:25;;;;;;;;;;;10.00;99.90;;;;;;5097687;28;19915;-57
2023/04/08 08:29:51;;;;;;;;;;;10.20;99.90;;;;;;5097427;28;19916;-57
2023/04/08 08:32:17;;;;;;;;;;;10.10;99.90;;;;;;5097199;28;19965;-57
2023/04/08 08:34:43;;;;;;;;;;;10.20;99.90;;;;;;5097014;28;19920;-57
2023/04/08 08:37:09;;;;;;;;;;;10.00;99.90;;;;;;5097239;28;20269;-57
2023/04/08 08:39:35;;;;;;;;;;;10.00;99.90;;;;;;5097001;28;19912;-57
2023/04/08 08:42:01;;;;;;;;;;;10.30;99.90;;;;;;5097145;28;19955;-57
2023/04/08 08:44:27;;;;;;;;;;;10.70;99.90;;;;;;5097142;28;19913;-57
2023/04/08 08:46:52;;;;;;;;;;;10.80;99.90;;;;;;5096963;28;20379;-57
2023/04/08 08:49:18;;;;;;;;;;;11.10;99.90;;;;;;5096981;28;20341;-57
2023/04/08 08:51:45;;;;;;;;;;;11.30;99.90;;;;;;5096916;28;20392;-57
2023/04/08 08:54:11;;;;;;;;;;;11.70;99.90;;;;;;5096569;28;19924;-57
2023/04/08 08:56:37;;;;;;;;;;;11.90;99.90;;;;;;5096833;28;19916;-57
2023/04/08 08:59:03;;;;;;;;;;;12.10;99.90;;;;;;5096887;28;19926;-57
2023/04/08 09:01:36;;;;;;;;;;;12.20;99.90;;;;;;5096478;28;20006;-57
2023/04/08 09:04:14;;;;;;;;;;;12.10;99.90;;;;;;5096632;28;19968;-58
2023/04/08 09:06:40;;;;;;;;;;;12.40;99.90;;;;;;5096456;28;19919;-57
2023/04/08 09:09:09;;;;;;;;;;;12.60;99.90;;;;;;5096399;28;19915;-57
2023/04/08 09:11:36;;;;;;;;;;;12.90;99.90;;;;;;5096838;28;19962;-58
2023/04/08 09:14:01;;;;;;;;;;;13.20;99.90;;;;;;5096357;28;19916;-57
2023/04/08 09:16:29;;;;;;;;;;;13.00;99.90;;;;;;5096284;28;20030;-57
2023/04/08 09:19:07;;;;;;;;;;;12.90;99.90;;;;;;5096384;28;20054;-57
2023/04/08 09:21:34;;;;;;;;;;;12.90;99.90;;;;;;5095861;28;19923;-58
2023/04/08 09:23:59;;;;;;;;;;;12.90;99.90;;;;;;5095934;28;19908;-58
2023/04/08 09:26:26;;;;;;;;;;;13.00;99.90;;;;;;5096472;28;19912;-58
2023/04/08 09:29:02;;;;;;;;;;;13.00;99.90;;;;;;5095961;28;19912;-57
2023/04/08 09:31:29;;;;;;;;;;;13.10;99.90;;;;;;5096122;28;19916;-57
2023/04/08 09:33:56;;;;;;;;;;;13.30;99.90;;;;;;5096426;28;19912;-58
2023/04/08 09:36:22;;;;;;;;;;;13.00;99.90;;;;;;5095981;28;19916;-58
2023/04/08 09:38:48;;;;;;;;;;;13.40;99.90;;;;;;5095969;28;19920;-58
2023/04/08 09:41:15;;;;;;;;;;;13.60;99.90;;;;;;5095907;28;20368;-57
2023/04/08 09:43:48;;;;;;;;;;;13.40;99.90;;;;;;5095798;28;19912;-58
2023/04/08 09:46:15;;;;;;;;;;;13.60;99.90;;;;;;5095758;28;19912;-58
2023/04/08 09:48:55;;;;;;;;;;;13.50;99.90;;;;;;5096010;28;19912;-58
2023/04/08 09:51:22;;;;;;;;;;;13.70;99.90;;;;;;5095649;28;19916;-58
2023/04/08 09:53:53;;;;;;;;;;;13.60;99.90;;;;;;5095406;28;19973;-58
2023/04/08 09:56:20;;;;;;;;;;;14.30;99.90;;;;;;5095649;28;19912;-58
2023/04/08 09:59:01;;;;;;;;;;;14.30;99.90;;;;;;5095447;28;19919;-58
2023/04/08 10:01:31;;;;;;;;;;;14.80;99.90;;;;;;5095615;28;19916;-57
2023/04/08 10:03:57;;;;;;;;;;;15.30;99.90;;;;;;5095558;28;19980;-58
2023/04/08 10:06:27;;;;;;;;;;;16.10;99.90;;;;;;5095253;28;19955;-58
2023/04/08 10:08:53;;;;;;;;;;;16.20;99.30;;;;;;5095427;28;19918;-58
2023/04/08 10:11:19;;;;;;;;;;;15.90;99.40;;;;;;5095235;28;19982;-58
2023/04/08 10:13:46;;;;;;;;;;;16.70;99.90;;;;;;5095387;28;19912;-58
2023/04/08 10:16:21;;;;;;;;;;;17.10;99.90;;;;;;5095433;28;20019;-58
2023/04/08 10:18:51;;;;;;;;;;;17.20;99.90;;;;;;5095192;28;19916;-58
2023/04/08 10:21:36;;;;;;;;;;;17.90;99.90;;;;;;5095248;28;19991;-58
2023/04/08 10:24:05;;;;;;;;;;;17.70;99.90;;;;;;5095270;28;19912;-58
2023/04/08 10:26:34;;;;;;;;;;;17.20;99.90;;;;;;5095196;28;20356;-58
2023/04/08 10:29:20;;;;;;;;;;;17.60;99.90;;;;;;5095097;28;19916;-58
2023/04/08 10:31:51;;;;;;;;;;;17.40;99.90;;;;;;5095165;28;19916;-58
2023/04/08 10:34:17;;;;;;;;;;;17.20;99.90;;;;;;5094899;28;19945;-58
2023/04/08 10:36:43;;;;;;;;;;;16.70;99.90;;;;;;5095011;28;20334;-58
2023/04/08 10:39:09;;;;;;;;;;;16.40;99.90;;;;;;5095035;28;20376;-58
2023/04/08 10:41:40;;;;;;;;;;;16.40;99.90;;;;;;5094893;28;19916;-58
2023/04/08 10:44:14;;;;;;;;;;;16.50;99.90;;;;;;5095234;28;19919;-58
2023/04/08 10:46:40;;;;;;;;;;;16.40;99.90;;;;;;5094871;28;19912;-58
2023/04/08 10:49:07;;;;;;;;;;;16.10;99.90;;;;;;5095031;28;19920;-58
2023/04/08 10:51:34;;;;;;;;;;;15.10;99.90;;;;;;5095124;28;19973;-58
2023/04/08 10:54:07;;;;;;;;;;;15.20;99.90;;;;;;5094641;28;20220;-58
2023/04/08 10:56:33;;;;;;;;;;;14.90;99.90;;;;;;5094862;28;19924;-58
2023/04/08 10:58:59;;;;;;;;;;;14.70;99.90;;;;;;5094856;28;19908;-58
2023/04/08 11:01:25;;;;;;;;;;;15.10;99.90;;;;;;5094857;28;19958;-58
2023/04/08 11:03:51;;;;;;;;;;;15.10;99.90;;;;;;5094752;28;19951;-58
2023/04/08 11:06:17;;;;;;;;;;;15.30;99.90;;;;;;5094665;28;19966;-58
2023/04/08 11:08:43;;;;;;;;;;;15.40;99.90;;;;;;5094444;28;19911;-58
2023/04/08 11:11:09;;;;;;;;;;;14.80;99.90;;;;;;5094676;28;20436;-58
2023/04/08 11:13:36;;;;;;;;;;;14.60;99.90;;;;;;5094789;28;19920;-58
2023/04/08 11:16:04;;;;;;;;;;;15.20;99.90;;;;;;5094584;28;20011;-58
2023/04/08 11:18:31;;;;;;;;;;;15.50;99.90;;;;;;5094718;28;19968;-58
2023/04/08 11:20:57;;;;;;;;;;;15.80;99.90;;;;;;5094698;28;19915;-57
2023/04/08 11:23:26;;;;;;;;;;;15.30;99.90;;;;;;5094381;28;20039;-58
2023/04/08 11:25:52;;;;;;;;;;;15.50;99.90;;;;;;5094709;28;19913;-58
2023/04/08 11:28:18;;;;;;;;;;;15.50;99.90;;;;;;5094493;28;19920;-58
2023/04/08 11:30:44;;;;;;;;;;;15.00;99.90;;;;;;5094510;28;19912;-58
2023/04/08 11:33:11;;;;;;;;;;;15.10;99.90;;;;;;5094515;28;20357;-58
2023/04/08 11:35:41;;;;;;;;;;;15.00;99.90;;;;;;5094598;28;19923;-57
2023/04/08 11:38:07;;;;;;;;;;;14.70;99.90;;;;;;5094493;28;19996;-58
2023/04/08 11:40:33;;;;;;;;;;;14.70;99.90;;;;;;5094630;28;19973;-57
2023/04/08 11:43:07;;;;;;;;;;;14.70;99.90;;;;;;5094157;28;20335;-58
2023/04/08 11:45:37;;;;;;;;;;;14.20;99.90;;;;;;5095247;28;20018;-57
2023/04/08 11:48:10;;;;;;;;;;;14.20;99.90;;;;;;5098089;28;20011;-57
2023/04/08 11:50:35;;;;;;;;;;;13.90;99.90;;;;;;5098250;28;19912;-57
2023/04/08 11:53:01;;;;;;;;;;;13.80;99.90;;;;;;5098458;28;19916;-57
2023/04/08 11:55:28;;;;;;;;;;;13.70;99.90;;;;;;5097867;28;19928;-57
2023/04/08 11:57:55;;;;;;;;;;;13.50;99.90;;;;;;5097853;28;19912;-57
2023/04/08 12:00:21;;;;;;;;;;;13.80;99.90;;;;;;5097694;28;20355;-58
2023/04/08 12:02:47;;;;;;;;;;;14.10;99.90;;;;;;5097754;28;19923;-57
2023/04/08 12:05:13;;;;;;;;;;;14.20;99.90;;;;;;5097720;28;19919;-57
2023/04/08 12:07:39;;;;;;;;;;;14.10;99.90;;;;;;5097780;28;20434;-58
2023/04/08 12:10:05;;;;;;;;;;;13.90;97.80;;;;;;5097684;28;19916;-57
2023/04/08 12:12:31;;;;;;;;;;;13.80;99.90;;;;;;5097358;28;19916;-57
2023/04/08 12:14:57;;;;;;;;;;;13.90;99.90;;;;;;5097683;28;20690;-58
2023/04/08 12:17:23;;;;;;;;;;;14.10;99.90;;;;;;5097612;28;19947;-57
2023/04/08 12:19:48;;;;;;;;;;;13.80;99.90;;;;;;5097448;28;19916;-57
2023/04/08 12:22:15;;;;;;;;;;;13.90;99.90;;;;;;5097542;28;19922;-57
2023/04/08 12:24:41;;;;;;;;;;;13.80;99.90;;;;;;5097403;28;20262;-57
2023/04/08 12:27:06;;;;;;;;;;;13.90;99.90;;;;;;5097400;28;19916;-57
2023/04/08 12:29:32;;;;;;;;;;;13.90;99.90;;;;;;5097226;28;20377;-57
2023/04/08 12:31:58;;;;;;;;;;;13.80;99.90;;;;;;5097318;28;20082;-57
2023/04/08 12:34:24;;;;;;;;;;;13.60;99.90;;;;;;5097164;28;19912;-57
2023/04/08 12:36:50;;;;;;;;;;;14.20;99.90;;;;;;5097123;28;19908;-57
2023/04/08 12:39:16;;;;;;;;;;;14.60;99.30;;;;;;5097195;28;19920;-57
2023/04/08 12:41:41;;;;;;;;;;;15.00;93.60;;;;;;5097306;28;19912;-57
2023/04/08 12:44:07;;;;;;;;;;;14.90;92.30;;;;;;5097183;28;19912;-57
2023/04/08 12:46:33;;;;;;;;;;;15.10;96.50;;;;;;5097032;28;19912;-57
2023/04/08 12:48:59;;;;;;;;;;;15.30;99.90;;;;;;5096876;28;20430;-57
2023/04/08 12:51:25;;;;;;;;;;;15.60;99.90;;;;;;5096905;28;19908;-57
2023/04/08 12:53:51;;;;;;;;;;;15.50;99.90;;;;;;5096799;28;20409;-57
2023/04/08 12:56:17;;;;;;;;;;;14.90;99.90;;;;;;5096438;28;19916;-57
2023/04/08 12:58:42;;;;;;;;;;;15.00;99.90;;;;;;5095984;28;20529;-57
2023/04/08 13:01:08;;;;;;;;;;;15.30;99.90;;;;;;5096671;28;19912;-57
2023/04/08 13:03:35;;;;;;;;;;;15.10;99.90;;;;;;5096731;28;19963;-57
2023/04/08 13:06:00;;;;;;;;;;;15.00;99.90;;;;;;5096436;28;19998;-57
2023/04/08 13:08:26;;;;;;;;;;;14.80;99.90;;;;;;5096473;28;19948;-57
2023/04/08 13:10:53;;;;;;;;;;;14.90;99.90;;;;;;5096480;28;19959;-57
2023/04/08 13:13:19;;;;;;;;;;;14.90;99.90;;;;;;5096484;28;20294;-57
2023/04/08 13:15:45;;;;;;;;;;;14.90;99.90;;;;;;5096404;28;20419;-56
2023/04/08 13:18:11;;;;;;;;;;;14.90;99.90;;;;;;5096489;28;20297;-57
2023/04/08 13:20:37;;;;;;;;;;;14.90;99.90;;;;;;5096377;28;19912;-57
2023/04/08 13:23:02;;;;;;;;;;;14.90;99.90;;;;;;5096185;28;19962;-57
2023/04/08 13:25:28;;;;;;;;;;;15.00;99.90;;;;;;5096207;28;19965;-57
2023/04/08 13:27:54;;;;;;;;;;;14.90;99.90;;;;;;5078231;28;19919;-57
2023/04/08 13:30:20;;;;;;;;;;;14.50;99.90;;;;;;5095997;28;19908;-57
2023/04/08 13:32:46;;;;;;;;;;;14.70;99.90;;;;;;5096246;28;19923;-57
2023/04/08 13:35:12;;;;;;;;;;;14.60;99.90;;;;;;5096138;28;20342;-57
2023/04/08 13:37:38;;;;;;;;;;;14.60;99.90;;;;;;5061017;28;20055;-57
2023/04/08 13:40:10;;;;;;;;;;;14.60;99.90;;;;;;5078065;28;19912;-57
2023/04/08 13:42:38;;;;;;;;;;;14.60;99.90;;;;;;5095961;28;20381;-57
2023/04/08 13:45:05;;;;;;;;;;;14.50;99.90;;;;;;5095847;28;19951;-57
2023/04/08 13:47:32;;;;;;;;;;;14.40;99.90;;;;;;5078061;28;19923;-57
2023/04/08 13:49:58;;;;;;;;;;;14.50;99.90;;;;;;5077686;28;19920;-57
2023/04/08 13:52:23;;;;;;;;;;;14.80;99.90;;;;;;5095731;28;20285;-57
2023/04/08 13:54:55;;;;;;;;;;;14.80;99.90;;;;;;5095540;28;19978;-57
2023/04/08 13:57:22;;;;;;;;;;;14.90;99.90;;;;;;5078426;28;19992;-57
2023/04/08 13:59:49;;;;;;;;;;;14.80;99.90;;;;;;5077517;28;19919;-57
2023/04/08 14:02:15;;;;;;;;;;;14.90;99.90;;;;;;5095550;28;20164;-57
2023/04/08 14:04:44;;;;;;;;;;;15.00;99.90;;;;;;5077230;28;20286;-57
2023/04/08 14:07:12;;;;;;;;;;;15.00;99.90;;;;;;5076706;28;19912;-57
2023/04/08 14:09:39;;;;;;;;;;;15.00;99.90;;;;;;5095082;28;19912;-57
2023/04/08 14:12:05;;;;;;;;;;;14.90;99.90;;;;;;5095120;28;19920;-57
2023/04/08 14:14:30;;;;;;;;;;;14.90;99.90;;;;;;5095273;28;19916;-57
2023/04/08 14:16:56;;;;;;;;;;;14.80;99.90;;;;;;5095350;28;20320;-57
2023/04/08 14:19:22;;;;;;;;;;;14.80;99.90;;;;;;5095410;28;20373;-57
2023/04/08 14:21:48;;;;;;;;;;;14.80;99.90;;;;;;5095086;28;19923;-57